createdAt,value
2019-02-18T00:00:47.332Z,68.04
2019-02-18T00:03:17.038Z,68.36
2019-02-18T00:05:46.637Z,68.33
2019-02-18T00:08:15.971Z,68.70
2019-02-18T00:10:45.315Z,68.73
2019-02-18T00:13:14.643Z,69.01
2019-02-18T00:15:43.974Z,69.42
2019-02-18T00:18:13.343Z,69.70
2019-02-18T00:20:42.950Z,69.76
2019-02-18T00:23:12.262Z,69.95
2019-02-18T00:25:41.947Z,70.04
2019-02-18T00:28:11.565Z,70.25
2019-02-18T00:30:40.884Z,70.26
2019-02-18T00:33:10.212Z,71.00
2019-02-18T00:35:39.868Z,70.53
2019-02-18T00:38:09.470Z,70.69
2019-02-18T00:40:39.091Z,70.30
2019-02-18T00:43:08.402Z,70.23
2019-02-18T00:45:37.734Z,70.04
2019-02-18T00:48:07.053Z,69.63
2019-02-18T00:50:36.381Z,69.67
2019-02-18T00:53:06.095Z,69.95
2019-02-18T00:55:35.446Z,70.39
2019-02-18T00:58:05.115Z,70.70
2019-02-18T01:00:34.819Z,70.56
2019-02-18T01:03:04.348Z,70.48
2019-02-18T01:05:34.030Z,70.91
2019-02-18T01:08:03.630Z,70.86
2019-02-18T01:10:33.446Z,70.34
2019-02-18T01:13:03.051Z,70.62
2019-02-18T01:15:32.759Z,70.60
2019-02-18T01:18:02.474Z,70.93
2019-02-18T01:20:32.084Z,71.04
2019-02-18T01:23:01.779Z,70.85
2019-02-18T01:25:31.217Z,70.33
2019-02-18T01:28:00.554Z,70.20
2019-02-18T01:30:30.194Z,70.47
2019-02-18T01:32:59.885Z,70.59
2019-02-18T01:35:29.604Z,70.79
2019-02-18T01:37:59.224Z,71.34
2019-02-18T01:40:28.926Z,71.49
2019-02-18T01:42:58.636Z,71.62
2019-02-18T01:45:27.947Z,71.83
2019-02-18T01:47:57.645Z,71.68
2019-02-18T01:50:26.987Z,71.92
2019-02-18T01:52:56.296Z,72.01
2019-02-18T01:55:25.628Z,71.69
2019-02-18T01:57:54.955Z,71.50
2019-02-18T02:00:24.641Z,71.51
2019-02-18T02:02:54.244Z,71.51
2019-02-18T02:05:23.857Z,71.35
2019-02-18T02:07:56.333Z,71.67
2019-02-18T02:10:24.363Z,71.56
2019-02-18T02:13:15.062Z,71.65
2019-02-18T02:15:44.389Z,71.67
2019-02-18T02:18:13.738Z,71.84
2019-02-18T02:20:43.059Z,71.87
2019-02-18T02:23:12.397Z,71.85
2019-02-18T02:25:42.037Z,71.91
2019-02-18T02:28:11.388Z,72.25
2019-02-18T02:30:40.716Z,71.94
2019-02-18T02:33:10.441Z,72.30
2019-02-18T02:35:40.070Z,72.34
2019-02-18T02:38:09.377Z,72.40
2019-02-18T02:40:39.186Z,72.51
2019-02-18T02:43:08.487Z,72.27
2019-02-18T02:45:38.673Z,72.49
2019-02-18T02:48:08.026Z,72.39
2019-02-18T02:50:37.374Z,72.23
2019-02-18T02:53:06.742Z,72.26
2019-02-18T02:55:36.128Z,72.53
2019-02-18T02:58:05.461Z,72.41
2019-02-18T03:00:35.022Z,72.76
2019-02-18T03:03:04.366Z,72.73
2019-02-18T03:05:33.705Z,72.74
2019-02-18T03:08:03.370Z,72.24
2019-02-18T03:10:33.075Z,72.36
2019-02-18T03:13:02.439Z,72.49
2019-02-18T03:15:31.765Z,72.54
2019-02-18T03:18:01.332Z,72.27
2019-02-18T03:20:30.669Z,72.69
2019-02-18T03:23:00.292Z,72.96
2019-02-18T03:25:32.190Z,72.89
2019-02-18T03:28:25.975Z,72.67
2019-02-18T03:31:03.034Z,72.68
2019-02-18T03:33:51.795Z,72.76
2019-02-18T03:36:21.570Z,73.06
2019-02-18T03:38:50.893Z,72.94
2019-02-18T03:41:20.261Z,72.80
2019-02-18T03:43:49.881Z,72.69
2019-02-18T03:46:19.187Z,73.10
2019-02-18T03:48:48.547Z,72.60
2019-02-18T03:51:17.889Z,71.86
2019-02-18T03:53:47.233Z,72.47
2019-02-18T03:56:16.915Z,72.55
2019-02-18T03:58:46.209Z,72.81
2019-02-18T04:01:15.900Z,72.67
2019-02-18T04:03:45.505Z,72.66
2019-02-18T04:06:14.831Z,73.05
2019-02-18T04:08:44.171Z,73.25
2019-02-18T04:11:13.572Z,73.30
2019-02-18T04:13:43.207Z,73.52
2019-02-18T04:16:12.525Z,73.80
2019-02-18T04:18:41.858Z,73.40
2019-02-18T04:21:11.231Z,73.65
2019-02-18T04:23:40.731Z,73.54
2019-02-18T04:26:10.421Z,73.70
2019-02-18T04:28:40.153Z,74.31
2019-02-18T04:31:09.486Z,73.66
2019-02-18T04:33:38.871Z,73.68
2019-02-18T04:36:08.342Z,74.13
2019-02-18T04:38:38.063Z,73.91
2019-02-18T04:41:07.766Z,73.96
2019-02-18T04:43:37.117Z,73.82
2019-02-18T04:46:06.452Z,74.25
2019-02-18T04:48:36.068Z,74.05
2019-02-18T04:51:05.420Z,74.65
2019-02-18T04:53:35.070Z,74.86
2019-02-18T04:56:04.535Z,74.06
2019-02-18T04:58:33.869Z,75.17
2019-02-18T05:01:03.210Z,74.11
2019-02-18T05:03:32.899Z,74.02
2019-02-18T05:06:02.262Z,74.42
2019-02-18T05:08:31.604Z,74.37
2019-02-18T05:11:01.310Z,74.54
2019-02-18T05:13:31.115Z,74.43
2019-02-18T05:16:00.799Z,74.15
2019-02-18T05:18:30.417Z,74.26
2019-02-18T05:21:00.124Z,74.28
2019-02-18T05:23:29.516Z,74.49
2019-02-18T05:25:58.850Z,74.63
2019-02-18T05:28:28.179Z,74.60
2019-02-18T05:30:57.522Z,74.97
2019-02-18T05:33:27.142Z,74.93
2019-02-18T05:35:56.471Z,75.02
2019-02-18T05:38:25.809Z,74.82
2019-02-18T05:40:55.549Z,74.84
2019-02-18T05:43:24.892Z,74.68
2019-02-18T05:45:54.240Z,74.96
2019-02-18T05:48:23.549Z,75.15
2019-02-18T05:50:53.073Z,75.01
2019-02-18T05:53:22.439Z,75.36
2019-02-18T05:55:51.761Z,75.24
2019-02-18T05:58:21.467Z,75.36
2019-02-18T06:00:51.172Z,75.27
2019-02-18T06:03:20.888Z,75.27
2019-02-18T06:05:50.502Z,75.33
2019-02-18T06:08:19.852Z,75.21
2019-02-18T06:10:49.200Z,74.94
2019-02-18T06:13:18.503Z,75.35
2019-02-18T06:15:47.861Z,75.45
2019-02-18T06:18:17.610Z,75.64
2019-02-18T06:20:47.290Z,75.49
2019-02-18T06:23:16.905Z,75.14
2019-02-18T06:25:46.243Z,75.42
2019-02-18T06:28:15.591Z,75.17
2019-02-18T06:30:44.917Z,75.36
2019-02-18T06:33:14.596Z,75.09
2019-02-18T06:35:43.904Z,75.51
2019-02-18T06:38:13.505Z,75.27
2019-02-18T06:40:43.107Z,75.14
2019-02-18T06:43:12.442Z,75.37
2019-02-18T06:45:43.807Z,75.13
2019-02-18T06:48:20.839Z,75.23
2019-02-18T06:50:53.268Z,75.39
2019-02-18T06:53:22.928Z,74.78
2019-02-18T06:55:52.319Z,74.75
2019-02-18T06:58:33.470Z,74.62
2019-02-18T07:01:04.431Z,74.50
2019-02-18T07:03:35.500Z,73.98
2019-02-18T07:06:12.584Z,73.84
2019-02-18T07:08:49.755Z,73.72
2019-02-18T07:11:21.103Z,73.22
2019-02-18T07:13:50.458Z,73.18
2019-02-18T07:16:19.778Z,73.83
2019-02-18T07:18:49.109Z,73.36
2019-02-18T07:21:18.715Z,73.22
2019-02-18T07:23:48.124Z,73.36
2019-02-18T07:26:17.464Z,72.93
2019-02-18T07:28:46.778Z,72.59
2019-02-18T07:31:16.106Z,72.72
2019-02-18T07:33:45.724Z,72.73
2019-02-18T07:36:15.037Z,72.52
2019-02-18T07:38:44.719Z,72.54
2019-02-18T07:41:14.057Z,72.41
2019-02-18T07:43:43.409Z,72.11
2019-02-18T07:46:13.012Z,71.60
2019-02-18T07:48:42.338Z,71.16
2019-02-18T07:51:11.990Z,71.15
2019-02-18T07:53:41.319Z,70.79
2019-02-18T07:56:10.914Z,70.17
2019-02-18T07:58:40.633Z,69.67
2019-02-18T08:01:10.249Z,69.34
2019-02-18T08:03:39.591Z,68.95
2019-02-18T08:06:08.927Z,68.89
2019-02-18T08:08:38.274Z,69.11
2019-02-18T08:11:07.596Z,69.04
2019-02-18T08:13:36.986Z,69.06
2019-02-18T08:16:06.357Z,68.46
2019-02-18T08:18:35.949Z,68.50
2019-02-18T08:21:05.671Z,68.25
2019-02-18T08:23:35.010Z,68.33
2019-02-18T08:26:05.053Z,68.11
2019-02-18T08:28:34.343Z,67.62
2019-02-18T08:31:03.934Z,67.03
2019-02-18T08:33:33.573Z,66.95
2019-02-18T08:36:03.242Z,66.64
2019-02-18T08:38:32.916Z,66.31
2019-02-18T08:41:02.246Z,66.14
2019-02-18T08:43:31.688Z,65.51
2019-02-18T08:46:01.026Z,65.14
2019-02-18T08:48:30.367Z,64.95
2019-02-18T08:50:59.791Z,64.79
2019-02-18T08:53:29.109Z,64.27
2019-02-18T08:55:58.437Z,63.97
2019-02-18T08:58:27.795Z,63.64
2019-02-18T09:01:02.557Z,63.29
2019-02-18T09:03:28.164Z,63.12
2019-02-18T09:05:57.558Z,62.75
2019-02-18T09:08:26.925Z,62.35
2019-02-18T09:10:56.233Z,62.29
2019-02-18T09:13:25.541Z,61.30
2019-02-18T09:16:00.002Z,61.47
2019-02-18T09:18:26.215Z,61.17
2019-02-18T09:20:55.524Z,60.66
2019-02-18T09:23:26.517Z,60.00
2019-02-18T09:25:56.022Z,59.90
2019-02-18T09:28:25.631Z,59.76
2019-02-18T09:30:55.219Z,59.40
2019-02-18T09:33:24.564Z,59.18
2019-02-18T09:35:54.176Z,58.67
2019-02-18T09:38:25.392Z,58.47
2019-02-18T09:40:54.834Z,57.93
2019-02-18T09:43:24.157Z,57.31
2019-02-18T09:45:53.512Z,57.08
2019-02-18T09:48:22.843Z,56.42
2019-02-18T09:50:52.579Z,56.69
2019-02-18T09:53:21.903Z,55.34
2019-02-18T09:55:51.264Z,55.35
2019-02-18T09:58:20.946Z,55.15
2019-02-18T10:00:50.380Z,54.97
2019-02-18T10:03:20.169Z,54.23
2019-02-18T10:05:49.508Z,53.47
2019-02-18T10:08:19.171Z,52.36
2019-02-18T10:10:55.762Z,51.26
2019-02-18T10:13:19.579Z,49.73
2019-02-18T10:15:49.322Z,47.31
2019-02-18T10:18:18.936Z,44.93
2019-02-18T10:20:48.507Z,42.79
2019-02-18T10:23:18.112Z,40.24
2019-02-18T10:25:47.725Z,38.65
2019-02-18T10:28:17.305Z,37.75
2019-02-18T10:30:46.654Z,37.23
2019-02-18T10:33:16.264Z,36.18
2019-02-18T10:35:45.604Z,34.69
2019-02-18T10:38:15.369Z,34.57
2019-02-18T10:40:44.770Z,33.76
2019-02-18T10:43:14.086Z,32.87
2019-02-18T10:45:43.511Z,32.59
2019-02-18T10:48:12.858Z,31.70
2019-02-18T10:50:42.493Z,30.88
2019-02-18T10:53:11.829Z,30.53
2019-02-18T10:55:41.437Z,31.52
2019-02-18T10:58:10.800Z,31.43
2019-02-18T11:00:40.388Z,31.18
2019-02-18T11:03:09.705Z,30.72
2019-02-18T11:05:39.473Z,29.97
2019-02-18T11:08:09.617Z,30.24
2019-02-18T11:10:39.233Z,30.06
2019-02-18T11:13:08.585Z,28.84
2019-02-18T11:15:37.920Z,28.64
2019-02-18T11:18:07.261Z,27.67
2019-02-18T11:20:36.660Z,27.60
2019-02-18T11:23:06.000Z,27.74
2019-02-18T11:25:35.316Z,27.60
2019-02-18T11:28:04.885Z,26.97
2019-02-18T11:30:34.478Z,27.05
2019-02-18T11:33:04.096Z,27.39
2019-02-18T11:35:33.412Z,26.71
2019-02-18T11:38:03.014Z,27.39
2019-02-18T11:40:32.610Z,29.05
2019-02-18T11:43:02.217Z,29.50
2019-02-18T11:45:31.563Z,28.61
2019-02-18T11:48:01.188Z,27.81
2019-02-18T11:50:30.520Z,27.49
2019-02-18T11:52:59.863Z,27.17
2019-02-18T11:55:29.671Z,28.14
2019-02-18T11:57:59.020Z,28.43
2019-02-18T12:00:28.627Z,27.16
2019-02-18T12:03:03.660Z,27.01
2019-02-18T12:05:29.344Z,26.51
2019-02-18T12:07:58.715Z,26.37
2019-02-18T12:10:28.661Z,26.16
2019-02-18T12:12:58.251Z,25.86
2019-02-18T12:15:27.639Z,26.35
2019-02-18T12:18:00.360Z,26.89
2019-02-18T12:20:30.044Z,27.95
2019-02-18T12:22:59.416Z,27.47
2019-02-18T12:25:28.764Z,26.67
2019-02-18T12:27:59.993Z,27.18
2019-02-18T12:30:29.710Z,27.54
2019-02-18T12:32:59.035Z,26.55
2019-02-18T12:35:32.663Z,26.36
2019-02-18T12:37:59.981Z,25.84
2019-02-18T12:40:29.662Z,25.80
2019-02-18T12:42:58.989Z,25.85
2019-02-18T12:45:28.796Z,26.62
2019-02-18T12:47:58.352Z,26.16
2019-02-18T12:50:27.690Z,26.94
2019-02-18T12:52:57.417Z,27.71
2019-02-18T12:55:26.959Z,28.63
2019-02-18T12:57:56.706Z,30.76
2019-02-18T13:00:26.083Z,31.46
2019-02-18T13:02:55.837Z,32.31
2019-02-18T13:05:25.177Z,33.06
2019-02-18T13:07:54.546Z,33.09
2019-02-18T13:10:34.481Z,33.93
2019-02-18T13:12:55.783Z,33.93
2019-02-18T13:15:25.216Z,33.67
2019-02-18T13:17:54.556Z,34.60
2019-02-18T13:20:23.890Z,35.28
2019-02-18T13:22:53.593Z,35.13
2019-02-18T13:25:23.308Z,34.76
2019-02-18T13:27:52.915Z,35.45
2019-02-18T13:30:22.250Z,35.69
2019-02-18T13:32:51.908Z,35.37
2019-02-18T13:35:21.262Z,35.64
2019-02-18T13:37:50.601Z,35.56
2019-02-18T13:40:19.960Z,35.83
2019-02-18T13:42:49.830Z,35.98
2019-02-18T13:45:19.174Z,35.98
2019-02-18T13:47:48.495Z,35.80
2019-02-18T13:50:18.158Z,35.91
2019-02-18T13:52:47.509Z,35.46
2019-02-18T13:55:17.087Z,35.86
2019-02-18T13:57:46.771Z,36.59
2019-02-18T14:00:21.198Z,37.30
2019-02-18T14:02:51.554Z,36.95
2019-02-18T14:05:22.218Z,36.52
2019-02-18T14:07:51.583Z,36.38
2019-02-18T14:10:21.729Z,36.16
2019-02-18T14:12:51.065Z,36.04
2019-02-18T14:15:21.187Z,35.12
2019-02-18T14:17:50.802Z,35.68
2019-02-18T14:20:20.515Z,35.53
2019-02-18T14:22:50.212Z,36.05
2019-02-18T14:25:19.548Z,35.67
2019-02-18T14:27:49.228Z,35.10
2019-02-18T14:30:19.580Z,34.82
2019-02-18T14:32:49.364Z,35.23
2019-02-18T14:35:19.383Z,34.64
2019-02-18T14:37:49.236Z,34.82
2019-02-18T14:40:20.469Z,34.34
2019-02-18T14:42:50.752Z,34.34
2019-02-18T14:45:20.579Z,34.24
2019-02-18T14:47:50.178Z,34.20
2019-02-18T14:50:19.990Z,33.66
2019-02-18T14:52:49.700Z,34.39
2019-02-18T14:55:19.043Z,34.52
2019-02-18T14:57:48.707Z,34.30
2019-02-18T15:00:24.134Z,34.02
2019-02-18T15:02:57.038Z,34.22
2019-02-18T15:05:27.560Z,34.61
2019-02-18T15:07:57.188Z,34.83
2019-02-18T15:10:26.791Z,34.88
2019-02-18T15:12:56.156Z,35.25
2019-02-18T15:15:25.802Z,35.02
2019-02-18T15:17:55.509Z,35.05
2019-02-18T15:20:24.927Z,34.59
2019-02-18T15:22:54.625Z,35.26
2019-02-18T15:25:23.960Z,35.31
2019-02-18T15:27:53.293Z,35.45
2019-02-18T15:30:22.998Z,35.56
2019-02-18T15:32:52.686Z,35.74
2019-02-18T15:35:22.458Z,35.81
2019-02-18T15:37:52.088Z,35.69
2019-02-18T15:40:21.763Z,35.77
2019-02-18T15:42:51.370Z,35.79
2019-02-18T15:45:20.979Z,35.98
2019-02-18T15:47:50.323Z,35.83
2019-02-18T15:50:19.919Z,36.24
2019-02-18T15:52:49.596Z,36.73
2019-02-18T15:55:18.949Z,36.65
2019-02-18T15:57:48.327Z,36.63
2019-02-18T16:00:24.863Z,36.74
2019-02-18T16:02:54.183Z,37.13
2019-02-18T16:05:23.534Z,36.88
2019-02-18T16:07:52.850Z,37.08
2019-02-18T16:10:22.500Z,37.07
2019-02-18T16:12:51.846Z,37.19
2019-02-18T16:15:21.162Z,37.38
2019-02-18T16:17:50.497Z,37.80
2019-02-18T16:20:19.862Z,38.11
2019-02-18T16:22:49.262Z,38.49
2019-02-18T16:25:24.260Z,38.42
2019-02-18T16:27:53.626Z,38.73
2019-02-18T16:30:23.755Z,38.97
2019-02-18T16:32:53.223Z,39.22
2019-02-18T16:35:22.597Z,39.43
2019-02-18T16:37:51.948Z,39.73
2019-02-18T16:40:21.920Z,39.92
2019-02-18T16:42:59.114Z,39.97
2019-02-18T16:45:22.685Z,40.29
2019-02-18T16:47:53.061Z,40.38
2019-02-18T16:50:22.384Z,40.86
2019-02-18T16:52:51.722Z,40.91
2019-02-18T16:55:21.366Z,41.48
2019-02-18T16:57:51.402Z,41.34
2019-02-18T17:00:22.381Z,41.37
2019-02-18T17:02:52.062Z,41.78
2019-02-18T17:05:21.840Z,41.88
2019-02-18T17:07:51.559Z,42.28
2019-02-18T17:10:20.924Z,42.22
2019-02-18T17:12:50.559Z,42.48
2019-02-18T17:15:20.182Z,42.80
2019-02-18T17:17:49.780Z,42.83
2019-02-18T17:20:19.417Z,42.89
2019-02-18T17:22:48.789Z,43.17
2019-02-18T17:25:18.682Z,43.31
2019-02-18T17:27:48.322Z,43.72
2019-02-18T17:30:17.775Z,43.74
2019-02-18T17:32:47.089Z,43.93
2019-02-18T17:35:16.450Z,44.08
2019-02-18T17:37:45.793Z,44.48
2019-02-18T17:40:15.601Z,44.58
2019-02-18T17:42:45.203Z,44.67
2019-02-18T17:45:19.179Z,44.82
2019-02-18T17:47:48.507Z,44.96
2019-02-18T17:50:18.634Z,45.05
2019-02-18T17:52:47.927Z,45.10
2019-02-18T17:55:21.764Z,45.28
2019-02-18T17:57:51.482Z,45.43
2019-02-18T18:00:27.032Z,45.68
2019-02-18T18:02:56.627Z,45.83
2019-02-18T18:05:26.251Z,45.85
2019-02-18T18:07:55.595Z,45.90
2019-02-18T18:10:24.909Z,46.44
2019-02-18T18:12:54.244Z,46.56
2019-02-18T18:15:23.850Z,46.68
2019-02-18T18:17:53.176Z,46.93
2019-02-18T18:20:22.826Z,47.10
2019-02-18T18:22:52.151Z,47.26
2019-02-18T18:25:22.060Z,47.44
2019-02-18T18:27:51.813Z,47.80
2019-02-18T18:30:21.608Z,48.01
2019-02-18T18:32:51.330Z,48.16
2019-02-18T18:35:20.645Z,48.52
2019-02-18T18:37:49.985Z,48.80
2019-02-18T18:40:20.330Z,48.93
2019-02-18T18:42:49.675Z,49.11
2019-02-18T18:45:19.708Z,49.31
2019-02-18T18:47:49.044Z,49.79
2019-02-18T18:50:23.146Z,49.46
2019-02-18T18:52:52.792Z,49.73
2019-02-18T18:55:22.132Z,49.87
2019-02-18T18:57:51.817Z,50.23
2019-02-18T19:00:25.326Z,50.38
2019-02-18T19:02:54.995Z,50.62
2019-02-18T19:05:24.638Z,50.59
2019-02-18T19:07:54.031Z,50.68
2019-02-18T19:10:23.345Z,50.88
2019-02-18T19:12:52.686Z,51.13
2019-02-18T19:15:22.053Z,51.40
2019-02-18T19:17:51.408Z,51.43
2019-02-18T19:20:21.125Z,51.50
2019-02-18T19:22:50.742Z,51.86
2019-02-18T19:25:20.433Z,51.53
2019-02-18T19:27:50.038Z,51.94
2019-02-18T19:30:34.417Z,52.46
2019-02-18T19:33:03.718Z,52.40
2019-02-18T19:35:33.050Z,52.81
2019-02-18T19:38:02.658Z,52.89
2019-02-18T19:40:32.412Z,52.80
2019-02-18T19:43:01.726Z,53.20
2019-02-18T19:45:31.433Z,53.42
2019-02-18T19:48:01.141Z,53.39
2019-02-18T19:50:30.842Z,54.05
2019-02-18T19:53:00.566Z,53.90
2019-02-18T19:55:30.213Z,53.88
2019-02-18T19:58:00.187Z,54.12
2019-02-18T20:00:29.581Z,54.50
2019-02-18T20:02:59.317Z,54.42
2019-02-18T20:05:28.915Z,54.74
2019-02-18T20:07:58.602Z,55.05
2019-02-18T20:10:27.906Z,55.32
2019-02-18T20:12:57.638Z,55.14
2019-02-18T20:15:27.222Z,55.38
2019-02-18T20:17:56.789Z,55.66
2019-02-18T20:20:26.332Z,56.04
2019-02-18T20:22:55.958Z,55.85
2019-02-18T20:25:25.315Z,56.16
2019-02-18T20:27:55.119Z,56.29
2019-02-18T20:30:24.794Z,56.16
2019-02-18T20:32:54.177Z,56.23
2019-02-18T20:35:24.043Z,56.28
2019-02-18T20:37:54.008Z,56.57
2019-02-18T20:40:23.972Z,56.58
2019-02-18T20:42:53.415Z,56.60
2019-02-18T20:45:23.065Z,56.75
2019-02-18T20:47:52.787Z,56.50
2019-02-18T20:50:22.604Z,56.70
2019-02-18T20:52:52.395Z,56.99
2019-02-18T20:55:21.958Z,57.01
2019-02-18T20:57:51.753Z,57.27
2019-02-18T21:00:21.527Z,57.14
2019-02-18T21:02:50.889Z,57.55
2019-02-18T21:05:20.266Z,57.70
2019-02-18T21:07:50.209Z,57.74
2019-02-18T21:10:21.897Z,57.74
2019-02-18T21:12:51.617Z,57.39
2019-02-18T21:15:21.433Z,58.18
2019-02-18T21:17:50.795Z,58.39
2019-02-18T21:20:20.546Z,58.42
2019-02-18T21:22:50.302Z,58.49
2019-02-18T21:25:20.099Z,58.59
2019-02-18T21:27:49.515Z,58.44
2019-02-18T21:30:19.565Z,58.32
2019-02-18T21:32:49.299Z,58.25
2019-02-18T21:35:19.083Z,58.50
2019-02-18T21:37:49.014Z,58.62
2019-02-18T21:40:18.379Z,58.42
2019-02-18T21:42:48.028Z,58.63
2019-02-18T21:45:17.439Z,58.63
2019-02-18T21:47:46.864Z,58.81
2019-02-18T21:50:16.536Z,58.78
2019-02-18T21:52:46.170Z,58.85
2019-02-18T21:55:15.544Z,58.68
2019-02-18T21:57:44.894Z,58.90
2019-02-18T22:00:21.667Z,58.91
2019-02-18T22:02:51.603Z,58.82
2019-02-18T22:05:20.984Z,58.82
2019-02-18T22:07:50.655Z,58.85
2019-02-18T22:10:20.362Z,58.99
2019-02-18T22:12:50.083Z,58.92
2019-02-18T22:15:19.779Z,58.86
2019-02-18T22:17:49.492Z,58.84
2019-02-18T22:20:20.817Z,59.01
2019-02-18T22:22:50.454Z,59.09
2019-02-18T22:25:20.179Z,59.15
2019-02-18T22:27:49.596Z,59.07
2019-02-18T22:30:19.273Z,59.03
2019-02-18T22:32:49.005Z,58.84
2019-02-18T22:35:19.109Z,59.07
2019-02-18T22:37:48.818Z,59.34
2019-02-18T22:40:18.208Z,59.25
2019-02-18T22:42:47.926Z,59.19
2019-02-18T22:45:17.638Z,59.14
2019-02-18T22:47:47.027Z,59.21
2019-02-18T22:50:16.856Z,59.72
2019-02-18T22:52:46.237Z,59.59
2019-02-18T22:55:15.971Z,59.37
2019-02-18T22:57:45.333Z,59.63
2019-02-18T23:00:30.656Z,59.96
2019-02-18T23:03:00.680Z,60.19
2019-02-18T23:05:30.375Z,60.28
2019-02-18T23:08:00.095Z,60.20
2019-02-18T23:10:29.782Z,60.31
2019-02-18T23:12:59.495Z,60.41
2019-02-18T23:15:29.415Z,60.54
2019-02-18T23:17:59.415Z,60.49
2019-02-18T23:20:29.133Z,60.85
2019-02-18T23:22:58.857Z,61.26
2019-02-18T23:25:28.221Z,61.08
2019-02-18T23:27:57.587Z,61.24
2019-02-18T23:30:27.266Z,61.25
2019-02-18T23:32:57.384Z,61.41
2019-02-18T23:35:27.029Z,61.42
2019-02-18T23:37:56.471Z,62.14
2019-02-18T23:40:25.837Z,62.22
2019-02-18T23:42:55.188Z,62.58
2019-02-18T23:45:24.913Z,62.84
2019-02-18T23:47:54.617Z,62.88
2019-02-18T23:50:24.313Z,62.99
2019-02-18T23:52:53.739Z,63.09
2019-02-18T23:55:23.087Z,63.00
2019-02-18T23:57:52.842Z,63.21
